createdAt,value
2019-04-05T18:27:15.010Z,11.30
2019-04-05T18:32:19.536Z,11.30
2019-04-05T18:37:23.759Z,11.10
2019-04-05T18:42:27.994Z,11.20
2019-04-05T18:47:32.239Z,11.30
2019-04-05T18:52:36.653Z,11.20
2019-04-05T18:57:41.283Z,11.10
2019-04-05T19:02:46.613Z,11.00
2019-04-05T19:07:50.832Z,11.00
2019-04-05T19:12:55.264Z,11.00
2019-04-05T19:17:59.698Z,11.00
2019-04-05T19:23:04.036Z,10.90
2019-04-05T19:28:08.264Z,11.00
2019-04-05T19:48:30.556Z,11.00
2019-04-05T19:53:35.342Z,10.90
2019-04-05T19:58:39.673Z,10.80
2019-04-05T20:03:43.884Z,10.80
2019-04-05T20:08:48.105Z,10.80
2019-04-05T20:13:52.372Z,10.80
2019-04-05T20:18:56.652Z,10.70
2019-04-05T20:24:09.395Z,10.50
2019-04-05T20:29:07.001Z,10.50
2019-04-05T20:34:12.265Z,10.30
2019-04-05T20:39:16.493Z,10.20
2019-04-05T20:44:20.823Z,10.20
2019-04-05T20:49:25.038Z,10.10
2019-04-05T20:54:29.629Z,10.10
2019-04-05T20:59:34.208Z,10.00
2019-04-05T21:04:39.255Z,10.10
2019-04-05T21:09:43.587Z,10.10
2019-04-05T21:14:48.011Z,10.20
2019-04-05T21:19:52.223Z,10.30
2019-04-05T21:24:56.579Z,10.40
2019-04-05T21:30:00.857Z,10.40
2019-04-05T21:35:06.042Z,10.50
2019-04-05T21:40:10.489Z,10.60
2019-04-05T21:45:15.201Z,10.60
2019-04-05T21:50:19.421Z,10.60
2019-04-05T21:55:23.645Z,10.50
2019-04-05T22:00:33.524Z,10.60
2019-04-05T22:05:37.747Z,10.70
2019-04-05T22:10:42.050Z,10.60
2019-04-05T22:15:46.282Z,10.60
2019-04-05T22:20:50.576Z,10.60
2019-04-05T22:25:54.866Z,10.40
2019-04-05T22:30:59.249Z,10.50
2019-04-05T22:36:03.627Z,10.50
2019-04-05T22:41:07.935Z,10.60
2019-04-05T22:46:12.351Z,10.60
2019-04-05T22:51:16.653Z,10.70
2019-04-05T22:56:20.980Z,10.60
2019-04-05T23:01:26.449Z,10.70
2019-04-05T23:06:31.036Z,10.60
2019-04-05T23:11:35.442Z,10.50
2019-04-05T23:16:39.939Z,10.50
2019-04-05T23:21:44.331Z,10.70
2019-04-05T23:26:48.666Z,10.80
2019-04-05T23:31:53.148Z,10.80
2019-04-05T23:36:57.485Z,10.90
2019-04-05T23:42:01.885Z,11.00
2019-04-05T23:47:06.245Z,10.90
2019-04-05T23:52:10.564Z,10.80
2019-04-05T23:57:14.894Z,10.90
